Time;durP1;ratioP1;P1;durP2;ratioP2;P2;SDS_P1;SDS_P2;PMS_P1;PMS_P2;Temp;Humidity;BMP_temperature;BMP_pressure;BME280_temperature;BME280_humidity;BME280_pressure;Samples;Min_cycle;Max_cycle;Signal;HPM_P1;HPM_P2
2023/03/19 00:00:18;;;;;;;34.78;20.55;;;;;;;;;;5092984;28;20020;-73
2023/03/19 00:02:48;;;;;;;34.65;19.83;;;;;;;;;;5092601;28;20477;-73
2023/03/19 00:05:14;;;;;;;38.85;20.83;;;;;;;;;;5093043;28;20048;-73
2023/03/19 00:07:40;;;;;;;35.17;19.88;;;;;;;;;;5092858;28;20038;-74
2023/03/19 00:10:06;;;;;;;41.47;19.75;;;;;;;;;;5092819;28;20099;-73
2023/03/19 00:12:32;;;;;;;32.28;19.38;;;;;;;;;;5092474;28;20416;-72
2023/03/19 00:14:58;;;;;;;34.03;18.02;;;;;;;;;;5092649;28;20119;-73
2023/03/19 00:17:24;;;;;;;32.50;19.23;;;;;;;;;;5092101;28;20028;-73
2023/03/19 00:19:50;;;;;;;32.92;18.38;;;;;;;;;;5092538;28;20045;-71
2023/03/19 00:22:16;;;;;;;34.55;18.80;;;;;;;;;;5092324;28;20028;-73
2023/03/19 00:24:42;;;;;;;30.73;18.23;;;;;;;;;;5092577;28;20378;-73
2023/03/19 00:27:08;;;;;;;35.42;18.63;;;;;;;;;;5092533;28;20031;-73
2023/03/19 00:29:35;;;;;;;37.90;18.40;;;;;;;;;;5092585;28;20024;-73
2023/03/19 00:32:01;;;;;;;35.03;18.63;;;;;;;;;;5092134;28;20108;-72
2023/03/19 00:34:27;;;;;;;37.53;19.95;;;;;;;;;;5092312;28;20012;-73
2023/03/19 00:36:53;;;;;;;35.42;18.20;;;;;;;;;;5092144;28;20471;-73
2023/03/19 00:39:20;;;;;;;34.40;16.42;;;;;;;;;;5092419;28;20500;-72
2023/03/19 00:41:49;;;;;;;30.65;16.67;;;;;;;;;;5092089;28;20103;-73
2023/03/19 00:44:16;;;;;;;27.23;15.75;;;;;;;;;;5092264;28;20100;-73
2023/03/19 00:46:41;;;;;;;33.58;16.52;;;;;;;;;;5092122;28;20020;-72
2023/03/19 00:49:07;;;;;;;24.77;15.13;;;;;;;;;;5092488;28;20026;-72
2023/03/19 00:51:33;;;;;;;24.63;15.30;;;;;;;;;;5093190;28;20023;-73
2023/03/19 00:53:59;;;;;;;23.58;13.98;;;;;;;;;;5092219;28;20392;-72
2023/03/19 00:56:25;;;;;;;24.50;13.52;;;;;;;;;;5092188;28;20036;-75
2023/03/19 00:58:51;;;;;;;28.02;17.65;;;;;;;;;;5092438;28;20035;-72
2023/03/19 01:01:17;;;;;;;40.90;24.88;;;;;;;;;;5088090;28;20435;-74
2023/03/19 01:03:44;;;;;;;25.75;16.60;;;;;;;;;;5091424;28;20070;-73
2023/03/19 01:06:11;;;;;;;23.23;14.40;;;;;;;;;;5090929;28;20107;-74
2023/03/19 01:08:37;;;;;;;25.73;15.40;;;;;;;;;;5091743;28;20027;-73
2023/03/19 01:11:06;;;;;;;24.55;14.10;;;;;;;;;;5092162;28;20020;-73
2023/03/19 01:13:33;;;;;;;27.75;14.45;;;;;;;;;;5091830;28;20051;-72
2023/03/19 01:15:58;;;;;;;24.33;16.33;;;;;;;;;;5091719;28;20028;-73
2023/03/19 01:18:24;;;;;;;33.63;18.27;;;;;;;;;;5091824;28;20595;-73
2023/03/19 01:20:50;;;;;;;25.13;15.70;;;;;;;;;;5092807;28;20031;-73
2023/03/19 01:23:16;;;;;;;28.17;16.40;;;;;;;;;;5096039;28;20060;-72
2023/03/19 01:25:42;;;;;;;27.70;15.45;;;;;;;;;;5094520;28;20423;-72
2023/03/19 01:28:08;;;;;;;24.15;15.70;;;;;;;;;;5092891;28;20077;-73
2023/03/19 01:30:35;;;;;;;24.75;14.68;;;;;;;;;;5095748;28;20016;-73
2023/03/19 01:33:01;;;;;;;25.92;15.20;;;;;;;;;;5095606;28;20382;-71
2023/03/19 01:35:27;;;;;;;23.95;14.35;;;;;;;;;;5095732;28;20103;-72
2023/03/19 01:37:53;;;;;;;30.98;14.68;;;;;;;;;;5095626;28;20503;-73
2023/03/19 01:40:19;;;;;;;25.48;15.20;;;;;;;;;;5095765;28;20049;-71
2023/03/19 01:42:55;;;;;;;23.52;15.07;;;;;;;;;;5095404;28;20020;-72
2023/03/19 01:45:33;;;;;;;30.88;16.08;;;;;;;;;;5095516;28;20358;-72
2023/03/19 01:47:59;;;;;;;30.85;16.20;;;;;;;;;;5095488;28;20060;-73
2023/03/19 01:50:34;;;;;;;25.27;16.55;;;;;;;;;;5095559;28;20020;-74
2023/03/19 01:53:01;;;;;;;36.67;18.60;;;;;;;;;;5095278;28;20058;-73
2023/03/19 01:55:27;;;;;;;41.88;19.88;;;;;;;;;;5095385;28;20054;-71
2023/03/19 01:57:53;;;;;;;44.17;21.27;;;;;;;;;;5095105;28;20035;-72
2023/03/19 02:00:19;;;;;;;37.75;19.33;;;;;;;;;;5095383;28;20024;-73
2023/03/19 02:02:52;;;;;;;37.20;19.05;;;;;;;;;;5095212;28;20458;-73
2023/03/19 02:05:24;;;;;;;25.25;15.68;;;;;;;;;;5095209;28;20051;-72
2023/03/19 02:07:51;;;;;;;29.85;16.88;;;;;;;;;;5095208;28;20028;-72
2023/03/19 02:10:17;;;;;;;40.17;20.13;;;;;;;;;;5095233;28;20160;-73
2023/03/19 02:12:43;;;;;;;33.17;17.02;;;;;;;;;;5094820;28;20540;-72
2023/03/19 02:15:10;;;;;;;30.42;16.50;;;;;;;;;;5095048;28;20107;-71
2023/03/19 02:17:36;;;;;;;25.15;15.00;;;;;;;;;;5094478;28;20319;-72
2023/03/19 02:20:15;;;;;;;24.33;14.60;;;;;;;;;;5094490;28;20030;-72
2023/03/19 02:22:45;;;;;;;26.08;15.55;;;;;;;;;;5090402;28;20099;-72
2023/03/19 02:25:14;;;;;;;27.88;15.13;;;;;;;;;;5095451;28;20028;-74
2023/03/19 02:27:40;;;;;;;27.52;16.02;;;;;;;;;;5115552;28;20031;-72
2023/03/19 02:30:18;;;;;;;27.58;15.40;;;;;;;;;;5116624;28;20051;-73
2023/03/19 02:32:44;;;;;;;26.75;15.68;;;;;;;;;;5076200;28;20021;-73
2023/03/19 02:35:10;;;;;;;29.10;15.82;;;;;;;;;;5076209;28;20052;-73
2023/03/19 02:37:36;;;;;;;29.70;15.93;;;;;;;;;;5095452;28;20459;-73
2023/03/19 02:40:07;;;;;;;30.92;17.50;;;;;;;;;;5095468;28;20024;-72
2023/03/19 02:42:33;;;;;;;25.08;15.88;;;;;;;;;;5094751;28;20039;-71
2023/03/19 02:44:59;;;;;;;27.05;15.65;;;;;;;;;;5094502;28;20374;-72
2023/03/19 02:47:26;;;;;;;27.05;15.27;;;;;;;;;;5094369;28;20119;-73
2023/03/19 02:49:52;;;;;;;24.25;15.13;;;;;;;;;;5094440;28;20020;-71
2023/03/19 02:52:18;;;;;;;26.38;15.30;;;;;;;;;;5093928;28;20024;-71
2023/03/19 02:54:45;;;;;;;27.45;14.77;;;;;;;;;;5095736;28;20031;-71
2023/03/19 02:57:11;;;;;;;22.15;14.30;;;;;;;;;;5106027;28;20028;-72
2023/03/19 02:59:38;;;;;;;21.10;14.23;;;;;;;;;;5104785;28;20039;-72
2023/03/19 03:02:04;;;;;;;26.25;14.68;;;;;;;;;;5117493;28;20111;-71
2023/03/19 03:04:30;;;;;;;24.90;16.05;;;;;;;;;;5114883;28;20441;-71
2023/03/19 03:06:56;;;;;;;22.70;14.20;;;;;;;;;;5113629;28;20047;-72
2023/03/19 03:09:23;;;;;;;22.38;14.38;;;;;;;;;;5114311;28;20031;-72
2023/03/19 03:11:49;;;;;;;26.77;14.30;;;;;;;;;;5113807;28;20038;-72
2023/03/19 03:14:15;;;;;;;23.42;13.88;;;;;;;;;;5114609;28;20390;-72
2023/03/19 03:16:41;;;;;;;22.95;15.10;;;;;;;;;;5114091;27;20042;-72
2023/03/19 03:19:07;;;;;;;24.58;15.00;;;;;;;;;;5114479;28;20031;-74
2023/03/19 03:21:34;;;;;;;27.52;14.57;;;;;;;;;;5114551;27;20035;-71
2023/03/19 03:24:00;;;;;;;22.67;13.82;;;;;;;;;;5115003;28;20027;-71
2023/03/19 03:26:26;;;;;;;21.67;14.15;;;;;;;;;;5114778;28;20024;-72
2023/03/19 03:28:52;;;;;;;24.95;13.65;;;;;;;;;;5114698;28;20011;-72
2023/03/19 03:31:19;;;;;;;22.23;13.55;;;;;;;;;;5114570;28;20024;-71
2023/03/19 03:33:45;;;;;;;19.25;12.80;;;;;;;;;;5114075;28;20113;-74
2023/03/19 03:36:11;;;;;;;20.38;11.95;;;;;;;;;;5113183;28;20023;-72
2023/03/19 03:38:37;;;;;;;20.60;12.30;;;;;;;;;;5114908;28;20062;-74
2023/03/19 03:41:03;;;;;;;19.35;12.43;;;;;;;;;;5113144;28;20477;-71
2023/03/19 03:43:29;;;;;;;21.55;12.13;;;;;;;;;;5113943;28;20051;-73
2023/03/19 03:45:55;;;;;;;24.13;11.38;;;;;;;;;;5114150;28;20024;-71
2023/03/19 03:48:21;;;;;;;22.23;11.90;;;;;;;;;;5114504;28;20099;-73
2023/03/19 03:50:47;;;;;;;16.95;11.30;;;;;;;;;;5113273;28;20043;-72
2023/03/19 03:53:14;;;;;;;16.00;10.15;;;;;;;;;;5115973;28;20015;-71
2023/03/19 03:55:40;;;;;;;18.05;11.63;;;;;;;;;;5116377;28;20020;-71
2023/03/19 03:58:06;;;;;;;17.10;9.73;;;;;;;;;;5113466;28;20046;-71
2023/03/19 04:00:32;;;;;;;17.75;9.98;;;;;;;;;;5113845;27;20195;-72
2023/03/19 04:02:58;;;;;;;21.30;10.15;;;;;;;;;;5114157;28;20063;-72
2023/03/19 04:05:25;;;;;;;19.55;10.63;;;;;;;;;;5113842;28;20034;-71
2023/03/19 04:07:51;;;;;;;15.70;9.75;;;;;;;;;;5113135;28;20019;-72
2023/03/19 04:10:18;;;;;;;17.42;9.05;;;;;;;;;;5113398;28;20480;-74
2023/03/19 04:12:44;;;;;;;17.27;10.55;;;;;;;;;;5112385;28;20168;-75
2023/03/19 04:15:11;;;;;;;20.55;8.90;;;;;;;;;;5113443;28;20020;-73
2023/03/19 04:17:39;;;;;;;17.42;9.50;;;;;;;;;;5112923;28;20039;-72
2023/03/19 04:20:06;;;;;;;18.63;10.02;;;;;;;;;;5113093;28;20027;-72
2023/03/19 04:22:32;;;;;;;16.33;9.38;;;;;;;;;;5112636;28;20068;-73
2023/03/19 04:24:58;;;;;;;15.50;9.02;;;;;;;;;;5112952;28;20423;-72
2023/03/19 04:27:24;;;;;;;15.20;9.55;;;;;;;;;;5112784;28;20031;-71
2023/03/19 04:29:50;;;;;;;13.05;8.77;;;;;;;;;;5112929;28;20045;-73
2023/03/19 04:32:17;;;;;;;17.67;8.80;;;;;;;;;;5112570;28;20024;-73
2023/03/19 04:34:43;;;;;;;14.18;8.48;;;;;;;;;;5094017;28;20031;-73
2023/03/19 04:37:09;;;;;;;17.67;9.10;;;;;;;;;;5098584;28;20024;-75
2023/03/19 04:39:35;;;;;;;14.75;8.88;;;;;;;;;;5099389;28;20059;-74
2023/03/19 04:42:03;;;;;;;12.57;8.95;;;;;;;;;;5098803;28;20031;-74
2023/03/19 04:44:29;;;;;;;15.95;9.32;;;;;;;;;;5099962;28;20401;-75
2023/03/19 04:46:55;;;;;;;20.65;9.38;;;;;;;;;;5095279;28;20024;-74
2023/03/19 04:49:21;;;;;;;16.10;8.80;;;;;;;;;;5092420;28;20034;-73
2023/03/19 04:51:47;;;;;;;15.45;9.00;;;;;;;;;;5091835;28;20024;-74
2023/03/19 04:54:13;;;;;;;16.92;8.88;;;;;;;;;;5091884;28;20036;-74
2023/03/19 04:56:39;;;;;;;18.67;9.60;;;;;;;;;;5091581;28;20504;-74
2023/03/19 04:59:05;;;;;;;14.77;9.27;;;;;;;;;;5091846;28;20028;-74
2023/03/19 05:01:31;;;;;;;13.02;9.38;;;;;;;;;;5091156;28;20020;-74
2023/03/19 05:03:58;;;;;;;13.40;8.50;;;;;;;;;;5084415;28;20058;-72
2023/03/19 05:06:25;;;;;;;18.00;8.57;;;;;;;;;;5092019;28;20032;-74
2023/03/19 05:08:51;;;;;;;14.27;9.13;;;;;;;;;;5094083;28;20016;-71
2023/03/19 05:11:17;;;;;;;18.02;9.27;;;;;;;;;;5092014;28;20042;-71
2023/03/19 05:13:43;;;;;;;15.68;9.13;;;;;;;;;;5091589;28;20012;-73
2023/03/19 05:16:10;;;;;;;18.33;8.50;;;;;;;;;;5091839;28;20027;-72
2023/03/19 05:18:36;;;;;;;13.45;8.50;;;;;;;;;;5092494;28;20480;-72
2023/03/19 05:21:03;;;;;;;16.60;8.85;;;;;;;;;;5092005;28;20493;-72
2023/03/19 05:23:29;;;;;;;15.40;8.85;;;;;;;;;;5092372;28;20382;-72
2023/03/19 05:25:58;;;;;;;12.15;8.02;;;;;;;;;;5091752;28;20396;-73
2023/03/19 05:28:24;;;;;;;13.57;8.75;;;;;;;;;;5091692;28;20024;-72
2023/03/19 05:30:50;;;;;;;19.48;9.10;;;;;;;;;;5093312;28;20564;-72
2023/03/19 05:33:16;;;;;;;15.85;8.55;;;;;;;;;;5093369;28;20022;-73
2023/03/19 05:35:42;;;;;;;14.52;8.15;;;;;;;;;;5093184;28;20107;-73
2023/03/19 05:38:10;;;;;;;14.43;8.15;;;;;;;;;;5091445;28;20059;-75
2023/03/19 05:40:36;;;;;;;13.32;8.00;;;;;;;;;;5089819;28;20028;-75
2023/03/19 05:43:02;;;;;;;11.50;7.80;;;;;;;;;;5098465;28;20043;-75
2023/03/19 05:45:28;;;;;;;11.88;7.65;;;;;;;;;;5097918;28;20024;-75
2023/03/19 05:47:54;;;;;;;13.43;7.60;;;;;;;;;;5091834;28;20153;-72
2023/03/19 05:50:20;;;;;;;12.52;7.72;;;;;;;;;;5089494;28;20052;-73
2023/03/19 05:52:46;;;;;;;14.43;7.07;;;;;;;;;;5092326;28;20012;-73
2023/03/19 05:55:12;;;;;;;13.45;7.43;;;;;;;;;;5092570;28;20489;-74
2023/03/19 05:57:39;;;;;;;12.48;7.43;;;;;;;;;;5088048;28;20496;-73
2023/03/19 06:00:05;;;;;;;10.48;7.22;;;;;;;;;;5091582;28;20028;-73
2023/03/19 06:02:31;;;;;;;11.00;6.60;;;;;;;;;;5090922;28;20393;-72
2023/03/19 06:04:57;;;;;;;12.00;7.28;;;;;;;;;;5091120;28;20028;-71
2023/03/19 06:07:23;;;;;;;11.48;6.68;;;;;;;;;;5090222;28;20497;-72
2023/03/19 06:09:50;;;;;;;11.88;7.28;;;;;;;;;;5088764;28;20107;-72
2023/03/19 06:12:16;;;;;;;13.77;7.78;;;;;;;;;;5090884;28;20043;-72
2023/03/19 06:14:43;;;;;;;10.70;7.00;;;;;;;;;;5091715;28;20384;-73
2023/03/19 06:17:09;;;;;;;14.45;6.97;;;;;;;;;;5093773;28;20030;-72
2023/03/19 06:19:35;;;;;;;12.88;7.43;;;;;;;;;;5092861;28;20124;-72
2023/03/19 06:22:01;;;;;;;11.40;7.00;;;;;;;;;;5093610;28;20107;-73
2023/03/19 06:24:29;;;;;;;13.40;7.93;;;;;;;;;;5093573;28;20054;-72
2023/03/19 06:26:55;;;;;;;11.43;7.20;;;;;;;;;;5093353;28;20016;-71
2023/03/19 06:29:21;;;;;;;11.25;7.15;;;;;;;;;;5093501;28;20500;-72
2023/03/19 06:31:47;;;;;;;15.02;7.38;;;;;;;;;;5093215;28;20024;-72
2023/03/19 06:34:13;;;;;;;13.85;7.65;;;;;;;;;;5093069;28;20542;-73
2023/03/19 06:36:39;;;;;;;12.50;8.02;;;;;;;;;;5093223;28;20038;-72
2023/03/19 06:39:05;;;;;;;12.50;7.80;;;;;;;;;;5093463;28;20515;-71
2023/03/19 06:41:31;;;;;;;13.88;7.78;;;;;;;;;;5093590;28;20103;-74
2023/03/19 06:43:57;;;;;;;15.48;8.65;;;;;;;;;;5093157;28;20490;-72
2023/03/19 06:46:23;;;;;;;15.23;8.48;;;;;;;;;;5086152;28;20032;-73
2023/03/19 06:48:49;;;;;;;24.95;12.13;;;;;;;;;;5093605;28;20020;-73
2023/03/19 06:51:15;;;;;;;12.88;8.50;;;;;;;;;;5094254;28;20028;-72
2023/03/19 06:53:41;;;;;;;19.90;11.43;;;;;;;;;;5093723;28;20039;-71
2023/03/19 06:56:07;;;;;;;17.80;10.45;;;;;;;;;;5091107;28;20025;-73
2023/03/19 06:58:34;;;;;;;12.40;8.98;;;;;;;;;;5091767;28;20032;-72
2023/03/19 07:01:00;;;;;;;11.52;7.75;;;;;;;;;;5093911;28;20017;-71
2023/03/19 07:03:27;;;;;;;10.93;8.05;;;;;;;;;;5093113;28;20111;-71
2023/03/19 07:05:53;;;;;;;11.38;8.43;;;;;;;;;;5093569;28;20089;-72
2023/03/19 07:08:19;;;;;;;13.20;8.55;;;;;;;;;;5093885;28;20029;-72
2023/03/19 07:10:45;;;;;;;15.02;8.57;;;;;;;;;;5093769;28;20020;-71
2023/03/19 07:13:11;;;;;;;13.23;8.90;;;;;;;;;;5093889;28;20028;-72
2023/03/19 07:15:37;;;;;;;12.25;8.57;;;;;;;;;;5094122;28;20020;-73
2023/03/19 07:18:03;;;;;;;12.50;8.55;;;;;;;;;;5094107;28;20028;-73
2023/03/19 07:20:30;;;;;;;16.50;9.02;;;;;;;;;;5093968;28;20051;-73
2023/03/19 07:22:56;;;;;;;16.83;10.40;;;;;;;;;;5093680;28;20020;-72
2023/03/19 07:25:22;;;;;;;14.63;9.57;;;;;;;;;;5093613;28;20035;-72
2023/03/19 07:27:48;;;;;;;15.10;9.55;;;;;;;;;;5093498;28;20107;-71
2023/03/19 07:30:14;;;;;;;18.35;10.05;;;;;;;;;;5093512;28;20031;-71
2023/03/19 07:32:41;;;;;;;12.10;8.75;;;;;;;;;;5093508;28;20016;-71
2023/03/19 07:35:09;;;;;;;14.73;9.32;;;;;;;;;;5093384;28;20515;-71
2023/03/19 07:37:35;;;;;;;13.52;9.05;;;;;;;;;;5093255;28;20043;-72
2023/03/19 07:40:02;;;;;;;20.00;9.82;;;;;;;;;;5093235;28;20027;-72
2023/03/19 07:42:28;;;;;;;19.23;9.40;;;;;;;;;;5092927;28;20031;-73
2023/03/19 07:44:54;;;;;;;16.77;9.55;;;;;;;;;;5093030;28;20421;-72
2023/03/19 07:47:20;;;;;;;16.67;8.88;;;;;;;;;;5093149;28;20051;-73
2023/03/19 07:49:46;;;;;;;17.92;8.20;;;;;;;;;;5092796;28;20480;-72
2023/03/19 07:52:13;;;;;;;13.32;8.73;;;;;;;;;;5093116;28;20089;-72
2023/03/19 07:54:39;;;;;;;14.50;8.50;;;;;;;;;;5093425;28;20099;-73
2023/03/19 07:57:05;;;;;;;17.42;9.43;;;;;;;;;;5093285;28;20580;-73
2023/03/19 07:59:31;;;;;;;20.08;8.52;;;;;;;;;;5093076;28;20116;-73
2023/03/19 08:01:57;;;;;;;13.63;8.75;;;;;;;;;;5092723;28;20107;-71
2023/03/19 08:04:23;;;;;;;15.50;8.43;;;;;;;;;;5091988;28;20028;-73
2023/03/19 08:06:49;;;;;;;13.05;8.23;;;;;;;;;;5092807;28;20472;-73
2023/03/19 08:09:15;;;;;;;15.70;8.38;;;;;;;;;;5093237;28;20047;-74
2023/03/19 08:11:41;;;;;;;12.48;7.68;;;;;;;;;;5093148;28;20059;-72
2023/03/19 08:14:07;;;;;;;16.55;8.80;;;;;;;;;;5092869;28;20028;-71
2023/03/19 08:16:33;;;;;;;15.68;8.30;;;;;;;;;;5092888;28;20031;-72
2023/03/19 08:18:59;;;;;;;14.32;8.23;;;;;;;;;;5093186;28;20032;-72
2023/03/19 08:21:26;;;;;;;15.55;8.20;;;;;;;;;;5092885;28;20062;-73
2023/03/19 08:23:52;;;;;;;16.33;8.02;;;;;;;;;;5092443;28;20016;-72
2023/03/19 08:26:18;;;;;;;16.33;8.50;;;;;;;;;;5092539;28;20032;-72
2023/03/19 08:28:44;;;;;;;17.17;8.90;;;;;;;;;;5092241;28;20032;-73
2023/03/19 08:31:11;;;;;;;16.52;8.77;;;;;;;;;;5092128;28;20039;-72
2023/03/19 08:33:38;;;;;;;15.75;8.70;;;;;;;;;;5092034;28;20470;-72
2023/03/19 08:36:13;;;;;;;19.63;9.13;;;;;;;;;;5092133;28;20020;-80
2023/03/19 08:38:39;;;;;;;18.17;8.90;;;;;;;;;;5091763;28;20409;-72
2023/03/19 08:41:06;;;;;;;13.77;8.00;;;;;;;;;;5092052;28;20024;-71
2023/03/19 08:43:33;;;;;;;15.93;8.25;;;;;;;;;;5091955;28;20082;-72
2023/03/19 08:46:03;;;;;;;15.75;7.90;;;;;;;;;;5092373;28;20074;-72
2023/03/19 08:48:29;;;;;;;16.10;8.30;;;;;;;;;;5092072;28;20613;-71
2023/03/19 08:50:56;;;;;;;12.60;7.30;;;;;;;;;;5091958;28;20027;-72
2023/03/19 08:53:22;;;;;;;15.60;7.55;;;;;;;;;;5091701;28;20070;-71
2023/03/19 08:56:07;;;;;;;8.70;5.90;;;;;;;;;;5091777;28;20024;-71
2023/03/19 08:58:33;;;;;;;11.10;6.70;;;;;;;;;;5089856;28;20481;-71
2023/03/19 09:01:02;;;;;;;12.48;6.18;;;;;;;;;;5089807;28;20043;-71
2023/03/19 09:03:28;;;;;;;11.15;5.53;;;;;;;;;;5091696;28;20451;-73
2023/03/19 09:05:57;;;;;;;8.57;4.72;;;;;;;;;;5091633;28;20056;-73
2023/03/19 09:08:23;;;;;;;10.52;4.93;;;;;;;;;;5092377;28;20072;-72
2023/03/19 09:10:49;;;;;;;12.55;6.28;;;;;;;;;;5092214;28;20039;-72
2023/03/19 09:13:15;;;;;;;7.90;4.45;;;;;;;;;;5091867;28;20107;-73
2023/03/19 09:15:41;;;;;;;7.22;4.25;;;;;;;;;;5092380;28;20556;-76
2023/03/19 09:18:07;;;;;;;6.70;3.40;;;;;;;;;;5091927;28;20024;-76
2023/03/19 09:20:33;;;;;;;6.80;3.50;;;;;;;;;;5092077;28;20053;-76
2023/03/19 09:22:59;;;;;;;7.65;3.78;;;;;;;;;;5091507;28;20028;-76
2023/03/19 09:25:25;;;;;;;8.80;3.47;;;;;;;;;;5092539;28;20049;-77
2023/03/19 09:27:51;;;;;;;7.28;3.47;;;;;;;;;;5091819;28;20555;-76
2023/03/19 09:30:17;;;;;;;7.32;3.95;;;;;;;;;;5092491;28;20312;-76
2023/03/19 09:32:43;;;;;;;13.15;3.80;;;;;;;;;;5092217;28;20059;-73
2023/03/19 09:35:09;;;;;;;6.55;3.30;;;;;;;;;;5090836;28;20052;-74
2023/03/19 09:37:35;;;;;;;6.00;3.13;;;;;;;;;;5090570;28;20103;-75
2023/03/19 09:40:03;;;;;;;15.65;4.75;;;;;;;;;;5090833;28;20114;-75
2023/03/19 09:42:35;;;;;;;8.93;4.45;;;;;;;;;;5093040;28;20100;-76
2023/03/19 09:45:02;;;;;;;6.70;4.25;;;;;;;;;;5093254;28;20081;-74
2023/03/19 09:47:35;;;;;;;7.32;3.95;;;;;;;;;;5090618;28;20103;-75
2023/03/19 09:50:10;;;;;;;11.50;6.63;;;;;;;;;;5093431;28;20020;-74
2023/03/19 09:52:48;;;;;;;9.70;4.13;;;;;;;;;;5094984;28;20016;-75
2023/03/19 09:55:23;;;;;;;10.15;4.07;;;;;;;;;;5095657;28;20023;-76
2023/03/19 09:57:50;;;;;;;6.63;3.90;;;;;;;;;;5094412;28;20378;-76
2023/03/19 10:00:19;;;;;;;9.15;4.93;;;;;;;;;;5093012;28;20111;-73
2023/03/19 10:02:45;;;;;;;9.57;4.32;;;;;;;;;;5094022;28;20020;-73
2023/03/19 10:05:23;;;;;;;8.65;4.63;;;;;;;;;;5094271;28;20085;-72
2023/03/19 10:07:52;;;;;;;7.38;4.50;;;;;;;;;;5094241;28;20568;-72
2023/03/19 10:10:37;;;;;;;7.90;4.65;;;;;;;;;;5094477;28;20035;-74
2023/03/19 10:13:12;;;;;;;14.00;7.88;;;;;;;;;;5094071;28;20055;-73
2023/03/19 10:15:38;;;;;;;8.07;4.43;;;;;;;;;;5094143;28;20016;-74
2023/03/19 10:18:06;;;;;;;9.48;4.85;;;;;;;;;;5095592;28;20527;-73
2023/03/19 10:20:41;;;;;;;10.07;4.60;;;;;;;;;;5097239;28;20028;-73
2023/03/19 10:23:32;;;;;;;11.45;4.90;;;;;;;;;;5093670;28;20039;-73
2023/03/19 10:25:59;;;;;;;9.23;4.85;;;;;;;;;;5094283;28;20081;-73
2023/03/19 10:28:27;;;;;;;10.23;4.15;;;;;;;;;;5093713;28;20024;-73
2023/03/19 10:30:59;;;;;;;9.68;4.35;;;;;;;;;;5093753;28;20081;-72
2023/03/19 10:33:30;;;;;;;7.47;3.97;;;;;;;;;;5093289;28;20414;-71
2023/03/19 10:35:58;;;;;;;7.30;4.20;;;;;;;;;;5093530;28;20420;-73
2023/03/19 10:38:25;;;;;;;8.32;4.25;;;;;;;;;;5093509;28;20111;-72
2023/03/19 10:40:59;;;;;;;11.77;4.60;;;;;;;;;;5093640;28;20421;-76
2023/03/19 10:43:26;;;;;;;15.93;5.78;;;;;;;;;;5092227;28;20029;-76
2023/03/19 10:45:53;;;;;;;11.85;5.80;;;;;;;;;;5093970;28;20032;-71
2023/03/19 10:48:19;;;;;;;9.30;3.95;;;;;;;;;;5093358;28;20392;-72
2023/03/19 10:50:57;;;;;;;12.25;4.25;;;;;;;;;;5093529;28;20043;-74
2023/03/19 10:53:23;;;;;;;7.55;3.40;;;;;;;;;;5093402;28;20440;-74
2023/03/19 10:56:16;;;;;;;8.57;4.53;;;;;;;;;;5093682;28;20032;-74
2023/03/19 10:58:55;;;;;;;9.32;3.92;;;;;;;;;;5093521;28;20032;-73
2023/03/19 11:01:20;;;;;;;7.38;4.30;;;;;;;;;;5092981;28;20044;-73
2023/03/19 11:03:51;;;;;;;10.30;5.03;;;;;;;;;;5092719;28;20024;-72
2023/03/19 11:06:19;;;;;;;7.68;4.53;;;;;;;;;;5092922;28;20532;-73
2023/03/19 11:08:54;;;;;;;11.05;5.10;;;;;;;;;;5092921;28;20043;-72
2023/03/19 11:11:25;;;;;;;13.60;5.65;;;;;;;;;;5092819;28;20142;-74
2023/03/19 11:13:51;;;;;;;7.97;4.85;;;;;;;;;;5093175;28;20020;-73
2023/03/19 11:16:17;;;;;;;9.07;5.00;;;;;;;;;;5083888;28;20020;-73
2023/03/19 11:18:47;;;;;;;12.73;5.47;;;;;;;;;;5078050;28;20030;-74
2023/03/19 11:21:22;;;;;;;10.90;4.93;;;;;;;;;;5089374;28;20393;-73
2023/03/19 11:23:52;;;;;;;9.48;4.40;;;;;;;;;;5085560;28;20111;-73
2023/03/19 11:26:22;;;;;;;10.30;5.35;;;;;;;;;;5092306;28;20024;-72
2023/03/19 11:28:51;;;;;;;10.90;4.85;;;;;;;;;;5085333;28;20117;-73
2023/03/19 11:31:27;;;;;;;11.23;5.07;;;;;;;;;;5078366;28;20043;-73
2023/03/19 11:34:02;;;;;;;8.38;4.40;;;;;;;;;;5083850;28;20017;-73
2023/03/19 11:36:30;;;;;;;12.88;4.20;;;;;;;;;;5084615;28;20047;-74
2023/03/19 11:39:09;;;;;;;7.63;3.65;;;;;;;;;;5087132;28;20016;-73
2023/03/19 11:41:53;;;;;;;11.18;4.78;;;;;;;;;;5086637;28;20024;-75
2023/03/19 11:44:31;;;;;;;12.20;4.50;;;;;;;;;;5085508;28;20636;-73
2023/03/19 11:47:05;;;;;;;8.85;4.55;;;;;;;;;;5086321;28;20489;-72
2023/03/19 11:49:41;;;;;;;10.80;4.78;;;;;;;;;;5084999;28;20015;-73
2023/03/19 11:52:17;;;;;;;10.55;4.82;;;;;;;;;;5087420;28;20423;-73
2023/03/19 11:54:43;;;;;;;10.48;5.53;;;;;;;;;;5086162;28;20382;-72
2023/03/19 11:57:10;;;;;;;10.80;5.13;;;;;;;;;;5076032;28;20058;-73
2023/03/19 11:59:45;;;;;;;11.07;4.30;;;;;;;;;;5087875;28;20069;-75
2023/03/19 12:02:19;;;;;;;12.35;5.15;;;;;;;;;;5094143;28;20071;-74
2023/03/19 12:05:03;;;;;;;10.65;4.72;;;;;;;;;;5092364;28;20392;-73
2023/03/19 12:07:38;;;;;;;11.63;4.38;;;;;;;;;;5091880;28;20550;-75
2023/03/19 12:10:28;;;;;;;6.90;3.30;;;;;;;;;;5091708;28;20020;-75
2023/03/19 12:13:07;;;;;;;6.75;3.42;;;;;;;;;;5089749;28;20059;-72
2023/03/19 12:15:33;;;;;;;10.88;4.13;;;;;;;;;;5091850;28;20020;-72
2023/03/19 12:18:17;;;;;;;7.95;3.65;;;;;;;;;;5092850;28;20504;-73
2023/03/19 12:20:51;;;;;;;9.65;4.28;;;;;;;;;;5092887;28;20094;-73
2023/03/19 12:23:24;;;;;;;11.18;5.20;;;;;;;;;;5092288;28;20500;-74
2023/03/19 12:25:58;;;;;;;8.30;3.70;;;;;;;;;;5092603;28;20032;-73
2023/03/19 12:28:29;;;;;;;11.57;3.80;;;;;;;;;;5090113;28;20016;-72
2023/03/19 12:31:14;;;;;;;10.18;3.78;;;;;;;;;;5092704;28;20482;-73
2023/03/19 12:33:43;;;;;;;6.93;3.45;;;;;;;;;;5092388;28;20101;-72
2023/03/19 12:36:11;;;;;;;9.68;3.25;;;;;;;;;;5092074;28;20462;-73
2023/03/19 12:38:44;;;;;;;12.98;6.10;;;;;;;;;;5092052;28;20042;-72
2023/03/19 12:41:31;;;;;;;8.40;3.33;;;;;;;;;;5092165;28;20139;-74
2023/03/19 12:44:06;;;;;;;8.20;3.80;;;;;;;;;;5091697;28;20028;-72
2023/03/19 12:46:41;;;;;;;7.78;3.38;;;;;;;;;;5090491;28;20031;-73
2023/03/19 12:49:14;;;;;;;8.70;3.95;;;;;;;;;;5092165;28;20038;-72
2023/03/19 12:51:44;;;;;;;7.95;4.05;;;;;;;;;;5092195;28;20024;-71
2023/03/19 12:54:13;;;;;;;7.35;3.50;;;;;;;;;;5092296;28;20103;-74
2023/03/19 12:56:41;;;;;;;9.52;4.10;;;;;;;;;;5092080;28;20024;-73
2023/03/19 12:59:16;;;;;;;8.00;3.80;;;;;;;;;;5092162;28;20032;-73
2023/03/19 13:01:51;;;;;;;8.15;3.55;;;;;;;;;;5091696;28;20473;-73
2023/03/19 13:04:17;;;;;;;;;;;;;;;;;;5092445;28;20033;-73
2023/03/19 13:06:52;;;;;;;9.95;4.47;;;;;;;;;;5091663;28;19916;-73
2023/03/19 13:09:24;;;;;;;11.50;4.30;;;;;;;;;;5091685;28;20043;-73
2023/03/19 13:11:59;;;;;;;9.80;4.50;;;;;;;;;;5091256;28;20028;-72
2023/03/19 13:14:46;;;;;;;9.98;3.88;;;;;;;;;;5092114;28;20054;-72
2023/03/19 13:17:21;;;;;;;11.18;4.35;;;;;;;;;;5070218;28;20093;-74
2023/03/19 13:19:53;;;;;;;10.65;4.03;;;;;;;;;;5092052;28;20020;-73
2023/03/19 13:22:30;;;;;;;11.65;4.18;;;;;;;;;;5093247;28;20040;-76
2023/03/19 13:24:56;;;;;;;10.40;4.40;;;;;;;;;;5097857;28;20035;-74
2023/03/19 13:27:26;;;;;;;10.55;4.50;;;;;;;;;;5099487;28;20028;-75
2023/03/19 13:29:57;;;;;;;8.68;3.88;;;;;;;;;;5097548;28;20028;-76
2023/03/19 13:32:30;;;;;;;16.77;5.20;;;;;;;;;;5095743;28;20389;-76
2023/03/19 13:35:28;;;;;;;12.38;4.90;;;;;;;;;;5096431;28;20016;-76
2023/03/19 13:37:56;;;;;;;12.23;4.35;;;;;;;;;;5072705;28;20439;-76
2023/03/19 13:40:37;;;;;;;22.23;5.88;;;;;;;;;;5096842;28;20469;-76
2023/03/19 13:43:03;;;;;;;9.48;4.40;;;;;;;;;;5096386;28;20577;-75
2023/03/19 13:45:37;;;;;;;11.07;4.93;;;;;;;;;;5096603;28;20056;-73
2023/03/19 13:48:21;;;;;;;11.15;5.18;;;;;;;;;;5095869;28;20094;-74
2023/03/19 13:51:01;;;;;;;10.98;4.28;;;;;;;;;;5095459;28;20047;-76
2023/03/19 13:53:35;;;;;;;10.77;4.72;;;;;;;;;;5093866;28;20430;-76
2023/03/19 13:56:02;;;;;;;;;;;;;;;;;;5096419;28;20142;-75
2023/03/19 14:01:26;;;;;;;8.50;4.70;;;;;;;;;;5095588;28;20061;-73
2023/03/19 14:03:53;;;;;;;10.20;4.38;;;;;;;;;;5094927;28;20059;-72
2023/03/19 14:06:33;;;;;;;9.30;4.20;;;;;;;;;;5094863;28;20024;-76
2023/03/19 14:09:00;;;;;;;11.45;4.00;;;;;;;;;;5095118;28;20103;-74
2023/03/19 14:11:32;;;;;;;10.55;3.90;;;;;;;;;;5094752;28;20025;-73
2023/03/19 14:14:01;;;;;;;9.75;4.65;;;;;;;;;;5092739;28;20473;-73
2023/03/19 14:16:33;;;;;;;10.70;4.50;;;;;;;;;;5094535;28;20028;-74
2023/03/19 14:19:00;;;;;;;9.88;3.95;;;;;;;;;;5094837;28;20081;-74
2023/03/19 14:21:33;;;;;;;10.50;4.35;;;;;;;;;;5095031;28;20016;-75
2023/03/19 14:24:19;;;;;;;14.90;4.50;;;;;;;;;;5094575;28;20016;-74
2023/03/19 14:26:45;;;;;;;10.05;4.18;;;;;;;;;;5094302;28;20024;-74
2023/03/19 14:29:14;;;;;;;12.20;6.40;;;;;;;;;;5095198;28;20051;-73
2023/03/19 14:31:41;;;;;;;10.50;4.63;;;;;;;;;;5095129;28;20032;-75
2023/03/19 14:34:10;;;;;;;13.10;6.07;;;;;;;;;;5095033;28;20476;-74
2023/03/19 14:36:45;;;;;;;12.48;4.75;;;;;;;;;;5095165;28;20465;-73
2023/03/19 14:39:26;;;;;;;9.68;5.05;;;;;;;;;;5095933;28;20024;-73